Time;durP1;ratioP1;P1;durP2;ratioP2;P2;SDS_P1;SDS_P2;PMS_P1;PMS_P2;Temp;Humidity;BMP_temperature;BMP_pressure;BME280_temperature;BME280_humidity;BME280_pressure;Samples;Min_cycle;Max_cycle;Signal;HPM_P1;HPM_P2
2022/03/28 00:00:51;;;;;;;18.17;8.75;;;;;;;;;;4916479;29;20213;-77
2022/03/28 00:03:17;;;;;;;13.30;8.98;;;;;;;;;;4917296;29;20244;-77
2022/03/28 00:05:43;;;;;;;12.17;8.43;;;;;;;;;;4916906;29;20273;-78
2022/03/28 00:08:09;;;;;;;12.13;8.13;;;;;;;;;;4916973;29;20418;-77
2022/03/28 00:10:36;;;;;;;14.30;8.80;;;;;;;;;;4915329;29;20523;-76
2022/03/28 00:13:02;;;;;;;15.32;9.65;;;;;;;;;;4916792;29;20178;-76
2022/03/28 00:15:28;;;;;;;11.60;8.47;;;;;;;;;;4916898;29;20187;-76
2022/03/28 00:17:54;;;;;;;15.52;7.68;;;;;;;;;;4916809;29;20487;-77
2022/03/28 00:20:20;;;;;;;11.40;8.43;;;;;;;;;;4916504;29;20190;-77
2022/03/28 00:22:46;;;;;;;11.63;8.43;;;;;;;;;;4916477;29;20442;-77
2022/03/28 00:25:12;;;;;;;14.33;8.70;;;;;;;;;;4915409;29;20471;-78
2022/03/28 00:27:39;;;;;;;16.83;10.35;;;;;;;;;;4916829;29;20419;-74
2022/03/28 00:30:06;;;;;;;13.43;9.32;;;;;;;;;;4916685;29;20213;-74
2022/03/28 00:32:32;;;;;;;14.05;8.57;;;;;;;;;;4916642;29;20267;-78
2022/03/28 00:34:59;;;;;;;20.00;9.00;;;;;;;;;;4916797;29;20643;-77
2022/03/28 00:37:25;;;;;;;14.60;9.07;;;;;;;;;;4916754;29;20222;-77
2022/03/28 00:39:51;;;;;;;14.07;9.75;;;;;;;;;;4916703;29;20251;-76
2022/03/28 00:42:17;;;;;;;15.27;9.07;;;;;;;;;;4916208;29;20610;-76
2022/03/28 00:44:43;;;;;;;12.13;8.00;;;;;;;;;;4916879;29;20503;-77
2022/03/28 00:47:09;;;;;;;14.47;10.47;;;;;;;;;;4916452;29;20257;-77
2022/03/28 00:49:36;;;;;;;18.10;10.23;;;;;;;;;;4916562;29;20975;-74
2022/03/28 00:52:02;;;;;;;15.23;10.57;;;;;;;;;;4916214;29;20423;-77
2022/03/28 00:54:28;;;;;;;15.23;9.80;;;;;;;;;;4916600;29;20181;-76
2022/03/28 00:56:55;;;;;;;15.73;9.82;;;;;;;;;;4916541;29;20179;-76
2022/03/28 00:59:21;;;;;;;18.70;10.30;;;;;;;;;;4916529;29;20179;-77
2022/03/28 01:01:47;;;;;;;15.15;9.57;;;;;;;;;;4916239;29;20581;-78
2022/03/28 01:04:14;;;;;;;14.65;9.20;;;;;;;;;;4916434;29;20588;-76
2022/03/28 01:06:40;;;;;;;13.52;8.60;;;;;;;;;;4917077;29;20178;-76
2022/03/28 01:09:07;;;;;;;20.77;11.98;;;;;;;;;;4919694;29;20619;-77
2022/03/28 01:11:33;;;;;;;20.63;10.80;;;;;;;;;;4918021;29;20710;-78
2022/03/28 01:14:00;;;;;;;15.65;9.27;;;;;;;;;;4919740;29;20178;-76
2022/03/28 01:16:29;;;;;;;17.90;11.70;;;;;;;;;;4919779;29;20180;-76
2022/03/28 01:18:55;;;;;;;15.48;9.90;;;;;;;;;;4919625;29;20179;-78
2022/03/28 01:21:21;;;;;;;15.50;10.82;;;;;;;;;;4917838;29;20206;-75
2022/03/28 01:23:47;;;;;;;13.77;9.20;;;;;;;;;;4919352;29;20206;-75
2022/03/28 01:26:15;;;;;;;18.85;10.15;;;;;;;;;;4919530;29;20493;-77
2022/03/28 01:28:41;;;;;;;15.57;9.40;;;;;;;;;;4919498;29;20205;-74
2022/03/28 01:31:08;;;;;;;16.85;10.68;;;;;;;;;;4919001;29;20284;-78
2022/03/28 01:33:35;;;;;;;24.10;11.77;;;;;;;;;;4919267;29;20187;-77
2022/03/28 01:36:01;;;;;;;15.02;9.30;;;;;;;;;;4918155;29;20183;-76
2022/03/28 01:38:27;;;;;;;16.48;10.45;;;;;;;;;;4919438;29;20580;-77
2022/03/28 01:40:53;;;;;;;16.17;9.88;;;;;;;;;;4918943;29;20213;-78
2022/03/28 01:43:20;;;;;;;15.98;10.60;;;;;;;;;;4919442;29;20178;-77
2022/03/28 01:45:46;;;;;;;17.52;10.77;;;;;;;;;;4919276;29;20212;-76
2022/03/28 01:48:12;;;;;;;15.57;9.75;;;;;;;;;;4919053;29;20178;-77
2022/03/28 01:50:38;;;;;;;19.48;11.10;;;;;;;;;;4918766;29;20578;-76
2022/03/28 01:53:04;;;;;;;18.67;10.75;;;;;;;;;;4919292;29;20194;-78
2022/03/28 01:55:31;;;;;;;14.48;10.95;;;;;;;;;;4918998;29;20183;-77
2022/03/28 01:57:57;;;;;;;19.27;11.32;;;;;;;;;;4918767;29;20230;-76
2022/03/28 02:00:24;;;;;;;17.98;10.68;;;;;;;;;;4918663;29;20183;-76
2022/03/28 02:02:50;;;;;;;16.00;10.60;;;;;;;;;;4918946;29;20171;-75
2022/03/28 02:05:16;;;;;;;18.17;11.75;;;;;;;;;;4919070;29;20183;-76
2022/03/28 02:07:43;;;;;;;18.80;10.77;;;;;;;;;;4918833;29;20178;-77
2022/03/28 02:10:10;;;;;;;24.13;12.30;;;;;;;;;;4918452;29;20211;-77
2022/03/28 02:12:37;;;;;;;16.88;12.05;;;;;;;;;;4918692;29;20279;-78
2022/03/28 02:15:05;;;;;;;20.42;12.15;;;;;;;;;;4917547;29;20293;-78
2022/03/28 02:17:31;;;;;;;16.67;11.25;;;;;;;;;;4918522;29;20174;-76
2022/03/28 02:19:57;;;;;;;25.20;13.00;;;;;;;;;;4917527;29;20175;-79
2022/03/28 02:22:24;;;;;;;21.38;13.35;;;;;;;;;;4916891;29;20579;-78
2022/03/28 02:24:50;;;;;;;21.40;14.32;;;;;;;;;;4918228;29;20198;-79
2022/03/28 02:27:16;;;;;;;20.23;13.60;;;;;;;;;;4918406;29;20632;-78
2022/03/28 02:29:42;;;;;;;22.30;13.43;;;;;;;;;;4918286;29;20209;-77
2022/03/28 02:32:08;;;;;;;20.33;12.80;;;;;;;;;;4917769;29;20206;-76
2022/03/28 02:34:35;;;;;;;23.48;14.52;;;;;;;;;;4918375;29;20265;-75
2022/03/28 02:37:01;;;;;;;19.50;12.82;;;;;;;;;;4918460;29;20175;-75
2022/03/28 02:39:27;;;;;;;26.15;14.60;;;;;;;;;;4918450;29;20182;-77
2022/03/28 02:41:53;;;;;;;25.47;13.97;;;;;;;;;;4917762;29;20770;-75
2022/03/28 02:44:19;;;;;;;24.08;15.00;;;;;;;;;;4918202;29;20896;-80
2022/03/28 02:46:46;;;;;;;24.30;15.60;;;;;;;;;;4918204;29;20190;-76
2022/03/28 02:49:12;;;;;;;22.27;14.85;;;;;;;;;;4918067;29;20557;-74
2022/03/28 02:51:38;;;;;;;26.80;14.18;;;;;;;;;;4900791;29;20204;-76
2022/03/28 02:54:04;;;;;;;26.03;14.57;;;;;;;;;;4917845;29;20648;-75
2022/03/28 02:56:30;;;;;;;33.00;15.68;;;;;;;;;;4917915;29;20439;-77
2022/03/28 02:58:56;;;;;;;24.20;14.40;;;;;;;;;;4918178;29;20231;-76
2022/03/28 03:01:22;;;;;;;30.33;16.20;;;;;;;;;;4917677;29;20454;-77
2022/03/28 03:03:48;;;;;;;27.07;14.97;;;;;;;;;;4916831;29;20769;-75
2022/03/28 03:06:14;;;;;;;26.13;15.93;;;;;;;;;;4917697;29;20450;-76
2022/03/28 03:08:40;;;;;;;28.10;16.30;;;;;;;;;;4917743;29;20469;-76
2022/03/28 03:11:06;;;;;;;29.03;16.63;;;;;;;;;;4916236;29;20469;-75
2022/03/28 03:13:32;;;;;;;31.10;16.83;;;;;;;;;;4917792;29;20414;-75
2022/03/28 03:15:59;;;;;;;29.40;17.17;;;;;;;;;;4917634;29;20913;-75
2022/03/28 03:18:25;;;;;;;26.85;16.48;;;;;;;;;;4916186;29;20418;-78
2022/03/28 03:20:50;;;;;;;24.88;17.35;;;;;;;;;;4917137;29;20356;-78
2022/03/28 03:23:16;;;;;;;37.90;17.53;;;;;;;;;;4917276;29;20226;-75
2022/03/28 03:25:42;;;;;;;31.02;17.83;;;;;;;;;;4917416;29;20801;-77
2022/03/28 03:28:09;;;;;;;30.88;19.05;;;;;;;;;;4917285;29;20179;-77
2022/03/28 03:30:35;;;;;;;34.88;19.75;;;;;;;;;;4916597;29;20187;-77
2022/03/28 03:33:01;;;;;;;28.77;17.27;;;;;;;;;;4917321;29;20626;-75
2022/03/28 03:35:27;;;;;;;41.22;19.00;;;;;;;;;;4917515;29;20505;-77
2022/03/28 03:37:53;;;;;;;36.13;17.80;;;;;;;;;;4916204;29;20261;-75
2022/03/28 03:40:19;;;;;;;33.60;18.07;;;;;;;;;;4915724;29;20268;-76
2022/03/28 03:42:45;;;;;;;35.75;20.75;;;;;;;;;;4920131;29;20505;-75
2022/03/28 03:45:11;;;;;;;33.15;20.15;;;;;;;;;;4915819;29;20217;-78
2022/03/28 03:47:38;;;;;;;35.57;19.80;;;;;;;;;;4917015;29;20218;-74
2022/03/28 03:50:05;;;;;;;28.30;17.77;;;;;;;;;;4917177;29;20813;-76
2022/03/28 03:52:31;;;;;;;33.50;18.10;;;;;;;;;;4915580;29;20205;-79
2022/03/28 03:54:57;;;;;;;31.88;18.23;;;;;;;;;;4917101;29;20213;-74
2022/03/28 03:57:23;;;;;;;31.92;19.30;;;;;;;;;;4917249;29;20185;-76
2022/03/28 03:59:49;;;;;;;38.53;20.30;;;;;;;;;;4917067;29;20187;-75
2022/03/28 04:02:15;;;;;;;40.77;19.70;;;;;;;;;;4916765;29;20558;-74
2022/03/28 04:04:41;;;;;;;37.05;21.08;;;;;;;;;;4916866;29;20492;-76
2022/03/28 04:07:07;;;;;;;28.38;17.02;;;;;;;;;;4917013;29;20193;-75
2022/03/28 04:09:33;;;;;;;39.15;20.35;;;;;;;;;;4916893;29;20212;-75
2022/03/28 04:11:59;;;;;;;36.03;18.83;;;;;;;;;;4916483;29;20201;-74
2022/03/28 04:14:25;;;;;;;40.80;19.80;;;;;;;;;;4917024;29;20828;-76
2022/03/28 04:16:51;;;;;;;38.70;20.57;;;;;;;;;;4916779;29;20512;-76
2022/03/28 04:19:17;;;;;;;37.03;19.03;;;;;;;;;;4916827;29;20422;-75
2022/03/28 04:21:43;;;;;;;42.50;21.57;;;;;;;;;;4916429;29;20910;-77
2022/03/28 04:24:09;;;;;;;35.27;21.10;;;;;;;;;;4915297;29;20866;-74
2022/03/28 04:26:35;;;;;;;38.80;19.52;;;;;;;;;;4916736;29;20446;-76
2022/03/28 04:29:01;;;;;;;36.63;20.17;;;;;;;;;;4916560;29;20216;-75
2022/03/28 04:31:27;;;;;;;33.75;19.35;;;;;;;;;;4916280;29;20201;-76
2022/03/28 04:33:53;;;;;;;42.75;22.27;;;;;;;;;;4916710;29;20174;-73
2022/03/28 04:36:21;;;;;;;38.60;20.83;;;;;;;;;;4916709;29;20233;-75
2022/03/28 04:38:47;;;;;;;34.05;19.67;;;;;;;;;;4916856;29;20418;-76
2022/03/28 04:41:13;;;;;;;41.80;19.77;;;;;;;;;;4916428;29;20217;-76
2022/03/28 04:43:39;;;;;;;32.25;17.60;;;;;;;;;;4919111;29;20438;-79
2022/03/28 04:46:05;;;;;;;33.20;18.90;;;;;;;;;;4920393;29;20289;-74
2022/03/28 04:48:31;;;;;;;35.03;17.88;;;;;;;;;;4920040;29;20461;-76
2022/03/28 04:50:57;;;;;;;33.97;17.87;;;;;;;;;;4919734;29;20260;-76
2022/03/28 04:53:23;;;;;;;30.63;17.00;;;;;;;;;;4920061;29;20412;-76
2022/03/28 04:55:49;;;;;;;34.53;16.80;;;;;;;;;;4920103;29;20454;-76
2022/03/28 04:58:16;;;;;;;33.42;19.40;;;;;;;;;;4919714;29;20409;-74
2022/03/28 05:00:42;;;;;;;31.85;16.83;;;;;;;;;;4919455;29;20245;-78
2022/03/28 05:03:09;;;;;;;36.63;19.13;;;;;;;;;;4920073;29;20187;-76
2022/03/28 05:05:35;;;;;;;33.05;16.17;;;;;;;;;;4920028;29;20185;-75
2022/03/28 05:08:01;;;;;;;39.25;20.08;;;;;;;;;;4919832;29;20554;-75
2022/03/28 05:10:27;;;;;;;37.27;18.87;;;;;;;;;;4919390;29;20296;-74
2022/03/28 05:12:53;;;;;;;36.15;18.95;;;;;;;;;;4919858;29;20409;-76
2022/03/28 05:15:19;;;;;;;36.43;19.57;;;;;;;;;;4919673;29;20617;-77
2022/03/28 05:17:45;;;;;;;35.20;19.38;;;;;;;;;;4919992;29;20430;-75
2022/03/28 05:20:11;;;;;;;35.80;21.20;;;;;;;;;;4919950;29;20190;-76
2022/03/28 05:22:38;;;;;;;32.50;17.38;;;;;;;;;;4919659;29;20438;-77
2022/03/28 05:25:05;;;;;;;35.55;19.17;;;;;;;;;;4902658;29;20655;-78
2022/03/28 05:27:31;;;;;;;38.28;20.75;;;;;;;;;;4919311;29;20185;-76
2022/03/28 05:29:58;;;;;;;42.25;20.92;;;;;;;;;;4919274;29;20264;-76
2022/03/28 05:32:25;;;;;;;45.80;22.27;;;;;;;;;;4919201;29;20261;-75
2022/03/28 05:34:50;;;;;;;36.80;20.00;;;;;;;;;;4919191;29;20177;-75
2022/03/28 05:37:17;;;;;;;34.10;19.87;;;;;;;;;;4919169;29;20269;-75
2022/03/28 05:39:44;;;;;;;44.05;20.13;;;;;;;;;;4919405;29;20425;-77
2022/03/28 05:42:10;;;;;;;39.50;21.45;;;;;;;;;;4918859;29;20207;-80
2022/03/28 05:44:38;;;;;;;48.42;21.95;;;;;;;;;;4919215;29;20182;-74
2022/03/28 05:47:04;;;;;;;42.35;21.35;;;;;;;;;;4919052;29;20188;-76
2022/03/28 05:49:31;;;;;;;40.88;22.23;;;;;;;;;;4918887;29;20203;-76
2022/03/28 05:51:57;;;;;;;43.42;21.55;;;;;;;;;;4918646;29;20206;-76
2022/03/28 05:54:23;;;;;;;38.60;21.08;;;;;;;;;;4919004;29;20192;-75
2022/03/28 05:56:49;;;;;;;36.47;19.48;;;;;;;;;;4919128;29;20180;-77
2022/03/28 05:59:15;;;;;;;41.60;20.98;;;;;;;;;;4918938;29;20179;-78
2022/03/28 06:01:41;;;;;;;51.83;22.30;;;;;;;;;;4918446;29;20230;-79
2022/03/28 06:04:07;;;;;;;46.22;22.45;;;;;;;;;;4918895;29;20190;-79
2022/03/28 06:06:34;;;;;;;38.50;21.83;;;;;;;;;;4918747;29;20683;-76
2022/03/28 06:09:00;;;;;;;43.75;22.45;;;;;;;;;;4918704;29;20202;-75
2022/03/28 06:11:26;;;;;;;59.28;25.42;;;;;;;;;;4918279;29;20569;-76
2022/03/28 06:13:53;;;;;;;44.17;24.70;;;;;;;;;;4918570;29;20181;-77
2022/03/28 06:16:19;;;;;;;40.33;21.90;;;;;;;;;;4918570;29;20171;-78
2022/03/28 06:18:46;;;;;;;43.17;21.75;;;;;;;;;;4917631;29;20562;-77
2022/03/28 06:21:12;;;;;;;39.15;21.05;;;;;;;;;;4918221;29;20206;-76
2022/03/28 06:23:38;;;;;;;40.05;21.58;;;;;;;;;;4918258;29;20565;-76
2022/03/28 06:26:05;;;;;;;39.10;21.43;;;;;;;;;;4918461;29;20199;-79
2022/03/28 06:28:31;;;;;;;38.47;21.55;;;;;;;;;;4918322;29;20460;-76
2022/03/28 06:30:57;;;;;;;45.47;22.88;;;;;;;;;;4917926;29;20229;-76
2022/03/28 06:33:23;;;;;;;43.90;23.88;;;;;;;;;;4917018;29;20182;-76
2022/03/28 06:35:49;;;;;;;46.25;22.73;;;;;;;;;;4918009;29;20254;-78
2022/03/28 06:38:15;;;;;;;41.73;22.33;;;;;;;;;;4918165;29;20597;-79
2022/03/28 06:40:41;;;;;;;43.20;22.67;;;;;;;;;;4917783;29;20418;-76
2022/03/28 06:43:07;;;;;;;45.63;24.60;;;;;;;;;;4917047;29;20269;-78
2022/03/28 06:45:36;;;;;;;50.23;26.40;;;;;;;;;;4917080;29;20629;-77
2022/03/28 06:48:02;;;;;;;55.33;26.45;;;;;;;;;;4918125;29;20827;-77
2022/03/28 06:50:28;;;;;;;56.72;27.50;;;;;;;;;;4917641;29;20694;-78
2022/03/28 06:52:54;;;;;;;51.33;27.00;;;;;;;;;;4918014;29;20204;-78
2022/03/28 06:55:20;;;;;;;51.47;26.65;;;;;;;;;;4917830;29;20841;-75
2022/03/28 06:57:47;;;;;;;56.50;28.40;;;;;;;;;;4916618;29;20183;-76
2022/03/28 07:00:13;;;;;;;62.55;35.10;;;;;;;;;;4917467;29;20205;-78
2022/03/28 07:02:39;;;;;;;150.82;91.07;;;;;;;;;;4917741;29;20201;-78
2022/03/28 07:05:06;;;;;;;57.20;33.97;;;;;;;;;;4916111;29;20183;-77
2022/03/28 07:07:43;;;;;;;56.42;31.85;;;;;;;;;;4917754;29;20182;-75
2022/03/28 07:10:09;;;;;;;52.15;27.58;;;;;;;;;;4917499;29;20242;-76
2022/03/28 07:12:35;;;;;;;49.63;27.23;;;;;;;;;;4917623;29;20197;-78
2022/03/28 07:15:02;;;;;;;49.42;25.25;;;;;;;;;;4917899;29;20187;-78
2022/03/28 07:17:27;;;;;;;46.03;26.73;;;;;;;;;;4917498;29;20251;-76
2022/03/28 07:19:53;;;;;;;51.90;26.47;;;;;;;;;;4917324;29;20191;-77
2022/03/28 07:22:19;;;;;;;47.07;26.93;;;;;;;;;;4916998;29;20803;-78
2022/03/28 07:24:45;;;;;;;46.47;26.97;;;;;;;;;;4917381;29;20446;-77
2022/03/28 07:27:11;;;;;;;58.47;29.02;;;;;;;;;;4917426;29;20453;-76
2022/03/28 07:29:38;;;;;;;47.13;27.07;;;;;;;;;;4916157;29;20234;-77
2022/03/28 07:32:04;;;;;;;51.13;27.98;;;;;;;;;;4916731;29;20443;-75
2022/03/28 07:34:31;;;;;;;47.67;26.65;;;;;;;;;;4917255;29;20253;-76
2022/03/28 07:36:57;;;;;;;47.88;27.88;;;;;;;;;;4915982;29;20183;-77
2022/03/28 07:39:24;;;;;;;55.80;27.85;;;;;;;;;;4917446;29;20192;-74
2022/03/28 07:41:50;;;;;;;48.47;26.75;;;;;;;;;;4917000;29;20258;-76
2022/03/28 07:44:16;;;;;;;41.60;27.02;;;;;;;;;;4917103;29;20271;-77
2022/03/28 07:46:44;;;;;;;48.28;24.40;;;;;;;;;;4917477;29;20180;-76
2022/03/28 07:49:10;;;;;;;45.95;25.15;;;;;;;;;;4917001;29;20696;-76
2022/03/28 07:51:36;;;;;;;49.28;27.65;;;;;;;;;;4916981;29;20203;-77
2022/03/28 07:54:03;;;;;;;40.70;26.30;;;;;;;;;;4916825;29;20175;-77
2022/03/28 07:56:29;;;;;;;46.97;26.65;;;;;;;;;;4916950;29;20183;-76
2022/03/28 07:58:55;;;;;;;39.78;25.65;;;;;;;;;;4917213;29;20182;-75
2022/03/28 08:01:21;;;;;;;40.20;24.47;;;;;;;;;;4916583;29;20593;-79
2022/03/28 08:03:47;;;;;;;38.90;24.00;;;;;;;;;;4917046;29;20435;-78
2022/03/28 08:06:13;;;;;;;42.57;24.60;;;;;;;;;;4915950;29;20191;-75
2022/03/28 08:08:39;;;;;;;42.60;26.00;;;;;;;;;;4915554;29;21018;-79
2022/03/28 08:11:08;;;;;;;43.03;24.55;;;;;;;;;;4916565;29;20433;-79
2022/03/28 08:13:34;;;;;;;40.08;25.08;;;;;;;;;;4916937;29;20180;-77
2022/03/28 08:16:00;;;;;;;42.67;25.05;;;;;;;;;;4916822;29;20182;-76
2022/03/28 08:18:26;;;;;;;39.60;23.50;;;;;;;;;;4920269;29;20179;-76
2022/03/28 08:20:53;;;;;;;39.50;24.37;;;;;;;;;;4920303;29;20574;-79
2022/03/28 08:23:20;;;;;;;40.93;23.53;;;;;;;;;;4920501;29;20437;-78
2022/03/28 08:25:47;;;;;;;46.35;25.63;;;;;;;;;;4920666;29;20419;-74
2022/03/28 08:28:13;;;;;;;39.65;23.73;;;;;;;;;;4920542;29;20341;-77
2022/03/28 08:30:39;;;;;;;38.08;23.50;;;;;;;;;;4919942;29;20217;-77
2022/03/28 08:33:05;;;;;;;37.77;22.77;;;;;;;;;;4920411;29;20193;-76
2022/03/28 08:35:31;;;;;;;50.03;25.17;;;;;;;;;;4920499;29;20415;-77
2022/03/28 08:37:58;;;;;;;38.38;22.70;;;;;;;;;;4920277;29;20413;-76
2022/03/28 08:40:24;;;;;;;35.15;21.92;;;;;;;;;;4919839;29;20185;-78
2022/03/28 08:42:50;;;;;;;40.35;22.67;;;;;;;;;;4920166;29;20558;-74
2022/03/28 08:45:16;;;;;;;37.77;23.23;;;;;;;;;;4919628;29;20530;-78
2022/03/28 08:47:44;;;;;;;40.03;23.37;;;;;;;;;;4908673;29;20847;-75
2022/03/28 08:50:10;;;;;;;31.33;20.87;;;;;;;;;;4919857;29;20518;-76
2022/03/28 08:52:36;;;;;;;36.63;20.97;;;;;;;;;;4920036;29;20927;-74
2022/03/28 08:55:03;;;;;;;30.77;20.20;;;;;;;;;;4919975;29;20402;-77
2022/03/28 08:57:28;;;;;;;26.60;20.03;;;;;;;;;;4920049;29;20393;-75
2022/03/28 08:59:54;;;;;;;31.97;20.73;;;;;;;;;;4919979;29;20397;-77
2022/03/28 09:02:44;;;;;;;28.50;19.73;;;;;;;;;;4919535;29;20446;-77
2022/03/28 09:05:11;;;;;;;36.90;20.40;;;;;;;;;;4919875;29;20815;-78
2022/03/28 09:07:37;;;;;;;25.20;17.47;;;;;;;;;;4919930;29;20951;-74
2022/03/28 09:10:05;;;;;;;27.27;19.77;;;;;;;;;;4919641;29;20437;-78
2022/03/28 09:12:31;;;;;;;31.77;19.63;;;;;;;;;;4919579;29;20453;-76
2022/03/28 09:14:58;;;;;;;26.50;18.90;;;;;;;;;;4919657;29;20417;-76
2022/03/28 09:17:25;;;;;;;26.57;20.23;;;;;;;;;;4919720;29;20411;-76
2022/03/28 09:19:53;;;;;;;30.03;20.40;;;;;;;;;;4919761;29;20426;-77
2022/03/28 09:22:23;;;;;;;25.63;20.10;;;;;;;;;;4919248;29;20441;-74
2022/03/28 09:24:50;;;;;;;32.00;20.90;;;;;;;;;;4919527;29;20430;-75
2022/03/28 09:27:21;;;;;;;28.43;21.33;;;;;;;;;;4919142;29;20450;-76
2022/03/28 09:30:07;;;;;;;26.17;20.77;;;;;;;;;;4916640;29;20547;-77
2022/03/28 09:32:34;;;;;;;27.93;20.93;;;;;;;;;;4913407;29;20522;-76
2022/03/28 09:35:08;;;;;;;28.10;20.43;;;;;;;;;;4919881;29;20427;-77
2022/03/28 09:37:49;;;;;;;26.87;20.90;;;;;;;;;;4919323;29;20410;-76
2022/03/28 09:40:22;;;;;;;27.47;20.00;;;;;;;;;;4919182;29;20409;-79
2022/03/28 09:42:48;;;;;;;28.60;21.00;;;;;;;;;;4919340;29;20950;-76
2022/03/28 09:45:21;;;;;;;28.50;21.03;;;;;;;;;;4919079;29;20410;-79
2022/03/28 09:48:15;;;;;;;28.63;21.10;;;;;;;;;;4919097;29;20421;-78
2022/03/28 09:50:42;;;;;;;27.43;20.67;;;;;;;;;;4918772;29;20517;-77
2022/03/28 09:53:19;;;;;;;25.97;19.60;;;;;;;;;;4918866;29;20479;-76
2022/03/28 09:55:53;;;;;;;25.50;18.70;;;;;;;;;;4918996;29;20419;-77
2022/03/28 09:58:36;;;;;;;26.33;20.53;;;;;;;;;;4919045;29;20585;-74
2022/03/28 10:01:05;;;;;;;28.20;19.10;;;;;;;;;;4918441;29;20442;-77
2022/03/28 10:03:33;;;;;;;27.60;19.13;;;;;;;;;;4918693;29;20425;-76
2022/03/28 10:06:00;;;;;;;26.13;18.17;;;;;;;;;;4919112;29;20975;-77
2022/03/28 10:08:27;;;;;;;21.17;17.00;;;;;;;;;;4917428;29;20505;-76
2022/03/28 10:10:53;;;;;;;26.17;19.37;;;;;;;;;;4918451;29;20422;-74
2022/03/28 10:13:22;;;;;;;23.10;18.33;;;;;;;;;;4918618;29;20930;-76
2022/03/28 10:15:48;;;;;;;18.87;16.40;;;;;;;;;;4918677;29;20829;-75
2022/03/28 10:18:14;;;;;;;25.27;17.73;;;;;;;;;;4917362;29;20423;-76
2022/03/28 10:20:42;;;;;;;21.00;16.90;;;;;;;;;;4916982;29;20427;-76
2022/03/28 10:23:09;;;;;;;24.33;17.57;;;;;;;;;;4917094;29;20936;-76
2022/03/28 10:25:35;;;;;;;25.60;17.57;;;;;;;;;;4918314;29;20779;-75
2022/03/28 10:28:01;;;;;;;21.23;17.40;;;;;;;;;;4918372;29;20431;-74
2022/03/28 10:30:28;;;;;;;26.90;17.37;;;;;;;;;;4917929;29;20470;-76
2022/03/28 10:33:16;;;;;;;21.33;17.07;;;;;;;;;;4918318;29;20417;-74
2022/03/28 10:36:02;;;;;;;23.43;16.60;;;;;;;;;;4918171;29;20501;-78
2022/03/28 10:38:28;;;;;;;20.40;16.43;;;;;;;;;;4918201;29;20494;-76
2022/03/28 10:41:01;;;;;;;26.70;16.50;;;;;;;;;;4917090;29;20804;-77
2022/03/28 10:43:29;;;;;;;24.50;17.00;;;;;;;;;;4918267;29;20932;-75
2022/03/28 10:45:59;;;;;;;26.60;18.00;;;;;;;;;;4918024;29;20816;-75
2022/03/28 10:48:46;;;;;;;24.50;17.70;;;;;;;;;;4918018;29;20479;-76
2022/03/28 10:51:24;;;;;;;20.57;15.37;;;;;;;;;;4917455;29;20430;-78
2022/03/28 10:53:54;;;;;;;19.60;15.60;;;;;;;;;;4917909;29;20991;-77
2022/03/28 10:56:28;;;;;;;20.43;15.93;;;;;;;;;;4917695;29;20486;-75
2022/03/28 10:58:55;;;;;;;22.17;18.00;;;;;;;;;;4917843;29;20900;-75
2022/03/28 11:01:22;;;;;;;22.13;17.13;;;;;;;;;;4917415;29;20490;-75
2022/03/28 11:04:22;;;;;;;24.43;17.93;;;;;;;;;;4917741;29;20419;-77
2022/03/28 11:07:00;;;;;;;23.20;18.30;;;;;;;;;;4917640;29;20757;-77
2022/03/28 11:09:44;;;;;;;21.83;17.97;;;;;;;;;;4917767;29;20481;-75
2022/03/28 11:12:10;;;;;;;27.73;17.73;;;;;;;;;;4916022;29;20434;-77
2022/03/28 11:14:42;;;;;;;21.73;17.30;;;;;;;;;;4917740;29;20501;-73
2022/03/28 11:17:16;;;;;;;21.00;16.57;;;;;;;;;;4917499;29;20458;-76
2022/03/28 11:19:54;;;;;;;23.33;18.23;;;;;;;;;;4917646;29;20895;-75
2022/03/28 11:22:38;;;;;;;20.83;16.70;;;;;;;;;;4917088;29;20452;-74
2022/03/28 11:25:04;;;;;;;23.83;17.13;;;;;;;;;;4916291;29;20493;-77
2022/03/28 11:27:31;;;;;;;19.93;16.00;;;;;;;;;;4917536;29;20418;-77
2022/03/28 11:30:01;;;;;;;23.07;17.83;;;;;;;;;;4917188;29;20454;-74
2022/03/28 11:32:30;;;;;;;20.60;15.57;;;;;;;;;;4916847;29;20426;-75
2022/03/28 11:34:56;;;;;;;21.20;17.70;;;;;;;;;;4917277;29;20407;-75
2022/03/28 11:37:23;;;;;;;19.93;15.53;;;;;;;;;;4917290;29;20755;-75
2022/03/28 11:39:57;;;;;;;24.13;16.70;;;;;;;;;;4916921;29;20426;-74
2022/03/28 11:42:24;;;;;;;20.93;15.80;;;;;;;;;;4916683;29;20442;-75
2022/03/28 11:44:50;;;;;;;17.57;15.30;;;;;;;;;;4917498;29;20426;-75
2022/03/28 11:47:18;;;;;;;20.30;16.33;;;;;;;;;;4917238;29;20450;-77
2022/03/28 11:49:53;;;;;;;21.07;15.93;;;;;;;;;;4917090;29;20470;-74
2022/03/28 11:52:20;;;;;;;21.20;14.63;;;;;;;;;;4916485;29;20426;-75
2022/03/28 11:54:46;;;;;;;20.67;15.70;;;;;;;;;;4917347;29;20461;-74
2022/03/28 12:00:11;;;;;;;19.43;16.00;;;;;;;;;;4916792;29;20483;-75
2022/03/28 12:02:46;;;;;;;22.57;16.47;;;;;;;;;;4916969;29;20442;-74
2022/03/28 12:05:12;;;;;;;20.97;15.53;;;;;;;;;;4916949;29;20498;-75
2022/03/28 12:07:38;;;;;;;22.00;15.43;;;;;;;;;;4916932;29;20450;-74
2022/03/28 12:10:05;;;;;;;22.53;15.40;;;;;;;;;;4916544;29;20489;-76
2022/03/28 12:12:32;;;;;;;19.00;15.07;;;;;;;;;;4916712;29;20431;-77
2022/03/28 12:14:58;;;;;;;19.97;15.30;;;;;;;;;;4917096;29;20422;-77
2022/03/28 12:17:30;;;;;;;29.23;16.10;;;;;;;;;;4917051;29;20489;-74
2022/03/28 12:20:06;;;;;;;20.57;14.80;;;;;;;;;;4916837;29;20409;-76
2022/03/28 12:22:43;;;;;;;25.23;16.50;;;;;;;;;;4916309;29;20453;-77
2022/03/28 12:25:21;;;;;;;19.67;16.40;;;;;;;;;;4916766;29;20430;-76
2022/03/28 12:27:51;;;;;;;19.63;16.13;;;;;;;;;;4916887;29;20411;-76
2022/03/28 12:30:17;;;;;;;28.27;19.00;;;;;;;;;;4916178;29;20497;-74
2022/03/28 12:32:44;;;;;;;23.50;15.27;;;;;;;;;;4915226;29;20483;-75
2022/03/28 12:35:10;;;;;;;22.73;16.20;;;;;;;;;;4916584;29;20415;-79
2022/03/28 12:37:36;;;;;;;21.80;16.67;;;;;;;;;;4916561;29;20512;-77
2022/03/28 12:40:03;;;;;;;20.53;16.10;;;;;;;;;;4916511;29;20426;-78
2022/03/28 12:42:29;;;;;;;20.20;16.13;;;;;;;;;;4916170;29;20932;-78
2022/03/28 12:44:56;;;;;;;17.37;15.47;;;;;;;;;;4919286;29;20482;-77
2022/03/28 12:47:26;;;;;;;21.60;16.83;;;;;;;;;;4916475;29;20415;-74
2022/03/28 12:49:53;;;;;;;19.67;16.40;;;;;;;;;;4916679;29;20502;-77
2022/03/28 12:52:24;;;;;;;23.73;17.07;;;;;;;;;;4916123;29;20502;-76
2022/03/28 12:54:56;;;;;;;21.47;15.90;;;;;;;;;;4916491;29;20398;-75
2022/03/28 12:57:30;;;;;;;25.87;17.37;;;;;;;;;;4916704;29;20414;-75
2022/03/28 12:59:56;;;;;;;23.60;16.40;;;;;;;;;;4916874;29;20812;-78
2022/03/28 13:02:22;;;;;;;24.17;17.43;;;;;;;;;;4916593;29;20438;-76
2022/03/28 13:04:49;;;;;;;22.40;16.50;;;;;;;;;;4920254;29;20435;-75
2022/03/28 13:07:20;;;;;;;23.17;16.83;;;;;;;;;;4919984;29;20422;-76
2022/03/28 13:10:03;;;;;;;19.80;16.10;;;;;;;;;;4919902;29;20458;-76
2022/03/28 13:12:38;;;;;;;21.90;16.60;;;;;;;;;;4919451;29;20434;-76
2022/03/28 13:15:07;;;;;;;22.67;16.93;;;;;;;;;;4919772;29;20415;-78
2022/03/28 13:17:33;;;;;;;25.37;18.17;;;;;;;;;;4918534;29;20431;-76
2022/03/28 13:20:00;;;;;;;23.83;16.93;;;;;;;;;;4918365;29;20485;-77
2022/03/28 13:22:32;;;;;;;23.73;17.77;;;;;;;;;;4919570;29;20446;-79
2022/03/28 13:25:11;;;;;;;27.73;16.53;;;;;;;;;;4919354;29;20525;-76
2022/03/28 13:30:24;;;;;;;28.17;17.73;;;;;;;;;;4919122;29;20504;-78
2022/03/28 13:32:50;;;;;;;22.47;17.43;;;;;;;;;;4919306;29;20418;-77
2022/03/28 13:35:17;;;;;;;22.20;15.80;;;;;;;;;;4919438;29;20935;-78
2022/03/28 13:37:53;;;;;;;26.67;19.47;;;;;;;;;;4918013;29;21004;-76
2022/03/28 13:40:19;;;;;;;28.67;19.17;;;;;;;;;;4917870;29;20422;-77
2022/03/28 13:42:45;;;;;;;26.67;18.87;;;;;;;;;;4919019;29;20457;-76
2022/03/28 13:45:11;;;;;;;29.77;19.10;;;;;;;;;;4919141;29;20422;-79
2022/03/28 13:47:37;;;;;;;26.63;18.33;;;;;;;;;;4919201;29;20910;-77
2022/03/28 13:50:03;;;;;;;25.60;17.63;;;;;;;;;;4919083;29;20470;-75
2022/03/28 13:52:29;;;;;;;25.97;18.20;;;;;;;;;;4918940;29;20803;-77
2022/03/28 13:54:55;;;;;;;26.40;18.37;;;;;;;;;;4919042;29;20407;-78
2022/03/28 13:57:21;;;;;;;29.63;18.53;;;;;;;;;;4919077;29;20832;-75
2022/03/28 13:59:47;;;;;;;24.50;17.67;;;;;;;;;;4919057;29;20510;-75
2022/03/28 14:02:13;;;;;;;25.10;19.30;;;;;;;;;;4918581;29;20438;-78
2022/03/28 14:04:39;;;;;;;26.97;18.77;;;;;;;;;;4919066;29;20822;-78
2022/03/28 14:07:05;;;;;;;26.40;18.53;;;;;;;;;;4918515;29;20470;-78
2022/03/28 14:09:31;;;;;;;35.53;20.67;;;;;;;;;;4918661;29;20462;-77
2022/03/28 14:11:58;;;;;;;28.73;21.27;;;;;;;;;;4918239;29;20477;-79
2022/03/28 14:14:25;;;;;;;28.83;19.53;;;;;;;;;;4917791;29;20487;-75
2022/03/28 14:16:52;;;;;;;31.53;19.20;;;;;;;;;;4918632;29;20422;-76
2022/03/28 14:19:18;;;;;;;29.43;19.97;;;;;;;;;;4918620;29;20411;-76
2022/03/28 14:21:45;;;;;;;32.70;20.87;;;;;;;;;;4917027;29;20453;-78
2022/03/28 14:24:11;;;;;;;31.00;18.60;;;;;;;;;;4918439;29;20447;-77
2022/03/28 14:26:38;;;;;;;29.60;17.73;;;;;;;;;;4918551;29;20422;-77